sensor_id;sensor_type;location;lat;lon;timestamp;temperature;humidity
21551;DHT22;10936;49.836;7.078;2023-03-01T06:00:47;-2.90;99.90
21551;DHT22;10936;49.836;7.078;2023-03-01T06:03:15;-2.90;99.90
21551;DHT22;10936;49.836;7.078;2023-03-01T06:05:41;-3.00;99.90
21551;DHT22;10936;49.836;7.078;2023-03-01T06:08:09;-3.00;99.90
21551;DHT22;10936;49.836;7.078;2023-03-01T06:10:35;-3.00;99.90
21551;DHT22;10936;49.836;7.078;2023-03-01T06:13:01;-3.00;99.90
21551;DHT22;10936;49.836;7.078;2023-03-01T06:15:26;-3.00;99.90
21551;DHT22;10936;49.836;7.078;2023-03-01T06:17:54;-3.00;99.90
21551;DHT22;10936;49.836;7.078;2023-03-01T06:20:25;-3.10;99.90
21551;DHT22;10936;49.836;7.078;2023-03-01T06:22:51;-3.10;99.90
21551;DHT22;10936;49.836;7.078;2023-03-01T06:25:20;-3.10;99.90
21551;DHT22;10936;49.836;7.078;2023-03-01T06:27:46;-3.00;99.90
21551;DHT22;10936;49.836;7.078;2023-03-01T06:30:13;-3.00;99.90
21551;DHT22;10936;49.836;7.078;2023-03-01T06:32:40;-3.00;99.90
21551;DHT22;10936;49.836;7.078;2023-03-01T06:35:13;-3.00;99.90
21551;DHT22;10936;49.836;7.078;2023-03-01T06:37:40;-2.90;99.90
21551;DHT22;10936;49.836;7.078;2023-03-01T06:40:06;-2.80;99.90
21551;DHT22;10936;49.836;7.078;2023-03-01T06:42:34;-2.70;99.90
21551;DHT22;10936;49.836;7.078;2023-03-01T06:45:00;-2.70;99.90
21551;DHT22;10936;49.836;7.078;2023-03-01T06:47:25;-2.60;99.90
21551;DHT22;10936;49.836;7.078;2023-03-01T06:49:51;-2.50;99.90
21551;DHT22;10936;49.836;7.078;2023-03-01T06:52:16;-2.40;99.90
21551;DHT22;10936;49.836;7.078;2023-03-01T06:54:42;-2.30;99.90
21551;DHT22;10936;49.836;7.078;2023-03-01T06:57:07;-2.20;99.90
21551;DHT22;10936;49.836;7.078;2023-03-01T06:59:33;-2.10;99.90
21551;DHT22;10936;49.836;7.078;2023-03-01T07:01:58;-2.10;99.90
21551;DHT22;10936;49.836;7.078;2023-03-01T07:04:24;-1.90;99.90
21551;DHT22;10936;49.836;7.078;2023-03-01T07:06:50;-1.60;99.90
21551;DHT22;10936;49.836;7.078;2023-03-01T07:09:23;-1.20;99.90
21551;DHT22;10936;49.836;7.078;2023-03-01T07:11:49;-0.80;99.90
21551;DHT22;10936;49.836;7.078;2023-03-01T07:14:15;-0.60;99.90
21551;DHT22;10936;49.836;7.078;2023-03-01T07:16:41;-0.50;99.90
21551;DHT22;10936;49.836;7.078;2023-03-01T07:19:07;0.00;99.90
21551;DHT22;10936;49.836;7.078;2023-03-01T07:21:32;0.70;99.90
21551;DHT22;10936;49.836;7.078;2023-03-01T07:23:58;1.70;99.90
21551;DHT22;10936;49.836;7.078;2023-03-01T07:26:23;2.70;99.90
21551;DHT22;10936;49.836;7.078;2023-03-01T07:28:49;3.80;99.90
21551;DHT22;10936;49.836;7.078;2023-03-01T07:31:14;4.90;99.90
21551;DHT22;10936;49.836;7.078;2023-03-01T07:33:40;6.00;99.90
21551;DHT22;10936;49.836;7.078;2023-03-01T07:36:06;6.90;99.90
21551;DHT22;10936;49.836;7.078;2023-03-01T07:38:32;7.60;99.90
21551;DHT22;10936;49.836;7.078;2023-03-01T07:40:59;7.50;99.90
21551;DHT22;10936;49.836;7.078;2023-03-01T07:43:26;7.30;99.90
21551;DHT22;10936;49.836;7.078;2023-03-01T07:45:52;8.40;99.90
21551;DHT22;10936;49.836;7.078;2023-03-01T07:48:17;9.70;99.90
21551;DHT22;10936;49.836;7.078;2023-03-01T07:50:43;10.10;99.90
21551;DHT22;10936;49.836;7.078;2023-03-01T07:53:09;9.80;99.90
21551;DHT22;10936;49.836;7.078;2023-03-01T07:55:35;9.60;99.90
21551;DHT22;10936;49.836;7.078;2023-03-01T07:58:01;10.00;99.90
21551;DHT22;10936;49.836;7.078;2023-03-01T08:00:26;10.10;99.90
21551;DHT22;10936;49.836;7.078;2023-03-01T08:02:52;8.80;99.90
21551;DHT22;10936;49.836;7.078;2023-03-01T08:05:18;7.30;99.90
21551;DHT22;10936;49.836;7.078;2023-03-01T08:07:43;6.50;99.90
21551;DHT22;10936;49.836;7.078;2023-03-01T08:10:10;5.60;99.90
21551;DHT22;10936;49.836;7.078;2023-03-01T08:12:36;4.30;99.90
21551;DHT22;10936;49.836;7.078;2023-03-01T08:15:01;2.80;99.90
21551;DHT22;10936;49.836;7.078;2023-03-01T08:17:27;2.20;99.90
21551;DHT22;10936;49.836;7.078;2023-03-01T08:19:53;1.80;99.90
21551;DHT22;10936;49.836;7.078;2023-03-01T08:22:18;1.40;99.90
21551;DHT22;10936;49.836;7.078;2023-03-01T08:24:44;1.20;99.90
21551;DHT22;10936;49.836;7.078;2023-03-01T08:27:09;1.10;99.90
21551;DHT22;10936;49.836;7.078;2023-03-01T08:29:37;1.20;99.90
21551;DHT22;10936;49.836;7.078;2023-03-01T08:32:03;1.60;99.90
21551;DHT22;10936;49.836;7.078;2023-03-01T08:34:29;1.90;99.90
21551;DHT22;10936;49.836;7.078;2023-03-01T08:36:56;1.90;99.90
21551;DHT22;10936;49.836;7.078;2023-03-01T08:39:22;2.30;99.90
21551;DHT22;10936;49.836;7.078;2023-03-01T08:41:47;2.50;99.90
21551;DHT22;10936;49.836;7.078;2023-03-01T08:44:14;2.80;99.90
21551;DHT22;10936;49.836;7.078;2023-03-01T08:46:43;2.60;99.90
21551;DHT22;10936;49.836;7.078;2023-03-01T08:49:15;2.10;99.90
21551;DHT22;10936;49.836;7.078;2023-03-01T08:51:41;2.80;99.90
21551;DHT22;10936;49.836;7.078;2023-03-01T08:54:11;3.20;99.90
21551;DHT22;10936;49.836;7.078;2023-03-01T08:56:36;3.50;99.90
21551;DHT22;10936;49.836;7.078;2023-03-01T08:59:02;3.80;99.90
21551;DHT22;10936;49.836;7.078;2023-03-01T09:01:28;4.20;99.90
21551;DHT22;10936;49.836;7.078;2023-03-01T09:03:53;4.80;99.90
21551;DHT22;10936;49.836;7.078;2023-03-01T09:06:19;5.30;99.90
21551;DHT22;10936;49.836;7.078;2023-03-01T09:08:47;5.00;99.90
21551;DHT22;10936;49.836;7.078;2023-03-01T09:11:18;5.30;99.90
21551;DHT22;10936;49.836;7.078;2023-03-01T09:13:44;5.10;99.90
21551;DHT22;10936;49.836;7.078;2023-03-01T09:16:12;4.00;99.90
21551;DHT22;10936;49.836;7.078;2023-03-01T09:18:38;4.50;99.90
21551;DHT22;10936;49.836;7.078;2023-03-01T09:21:06;5.90;99.90
21551;DHT22;10936;49.836;7.078;2023-03-01T09:23:43;7.50;99.90
21551;DHT22;10936;49.836;7.078;2023-03-01T09:26:11;8.90;99.90
21551;DHT22;10936;49.836;7.078;2023-03-01T09:28:37;8.50;99.90
21551;DHT22;10936;49.836;7.078;2023-03-01T09:31:04;9.10;99.90
21551;DHT22;10936;49.836;7.078;2023-03-01T09:33:31;9.10;99.90
21551;DHT22;10936;49.836;7.078;2023-03-01T09:36:02;10.30;99.90
21551;DHT22;10936;49.836;7.078;2023-03-01T09:38:28;9.90;99.90
21551;DHT22;10936;49.836;7.078;2023-03-01T09:40:54;11.40;99.90
21551;DHT22;10936;49.836;7.078;2023-03-01T09:46:03;12.40;99.00
21551;DHT22;10936;49.836;7.078;2023-03-01T09:48:36;13.20;99.10
21551;DHT22;10936;49.836;7.078;2023-03-01T09:51:08;13.00;98.80
21551;DHT22;10936;49.836;7.078;2023-03-01T09:53:34;10.50;99.90
21551;DHT22;10936;49.836;7.078;2023-03-01T09:56:17;10.90;99.90
21551;DHT22;10936;49.836;7.078;2023-03-01T10:01:46;10.50;99.90
21551;DHT22;10936;49.836;7.078;2023-03-01T10:09:40;13.60;97.90
21551;DHT22;10936;49.836;7.078;2023-03-01T10:12:15;13.10;97.40
21551;DHT22;10936;49.836;7.078;2023-03-01T10:17:34;10.80;99.80
21551;DHT22;10936;49.836;7.078;2023-03-01T10:20:23;10.00;99.90
21551;DHT22;10936;49.836;7.078;2023-03-01T10:22:50;10.20;99.90
21551;DHT22;10936;49.836;7.078;2023-03-01T10:25:36;10.80;99.30
21551;DHT22;10936;49.836;7.078;2023-03-01T10:28:20;10.90;99.90
21551;DHT22;10936;49.836;7.078;2023-03-01T10:30:48;11.10;99.90
21551;DHT22;10936;49.836;7.078;2023-03-01T10:33:32;9.80;99.90
21551;DHT22;10936;49.836;7.078;2023-03-01T10:36:00;9.90;99.90
21551;DHT22;10936;49.836;7.078;2023-03-01T10:38:25;10.10;99.90
21551;DHT22;10936;49.836;7.078;2023-03-01T10:40:57;10.60;99.90
21551;DHT22;10936;49.836;7.078;2023-03-01T10:43:30;10.50;99.90
21551;DHT22;10936;49.836;7.078;2023-03-01T10:45:57;10.40;99.90
21551;DHT22;10936;49.836;7.078;2023-03-01T10:48:25;10.00;99.90
21551;DHT22;10936;49.836;7.078;2023-03-01T10:53:57;9.70;99.90
21551;DHT22;10936;49.836;7.078;2023-03-01T10:56:22;8.80;99.90
21551;DHT22;10936;49.836;7.078;2023-03-01T10:59:05;9.50;99.90
21551;DHT22;10936;49.836;7.078;2023-03-01T11:01:32;9.80;99.90
21551;DHT22;10936;49.836;7.078;2023-03-01T11:06:31;9.10;99.90
21551;DHT22;10936;49.836;7.078;2023-03-01T11:08:57;10.80;99.90
21551;DHT22;10936;49.836;7.078;2023-03-01T11:11:38;10.20;99.90
21551;DHT22;10936;49.836;7.078;2023-03-01T11:14:16;10.00;99.90
21551;DHT22;10936;49.836;7.078;2023-03-01T11:16:45;10.10;99.90
21551;DHT22;10936;49.836;7.078;2023-03-01T11:22:13;10.20;99.90
21551;DHT22;10936;49.836;7.078;2023-03-01T11:24:46;12.30;99.90
21551;DHT22;10936;49.836;7.078;2023-03-01T11:27:21;11.60;98.80
21551;DHT22;10936;49.836;7.078;2023-03-01T11:30:00;10.70;99.80
21551;DHT22;10936;49.836;7.078;2023-03-01T11:32:35;11.20;99.90
21551;DHT22;10936;49.836;7.078;2023-03-01T11:35:34;11.50;99.30
21551;DHT22;10936;49.836;7.078;2023-03-01T11:38:05;12.00;98.90
21551;DHT22;10936;49.836;7.078;2023-03-01T11:40:39;11.70;98.90
21551;DHT22;10936;49.836;7.078;2023-03-01T11:44:01;11.70;98.20
21551;DHT22;10936;49.836;7.078;2023-03-01T11:46:35;10.50;99.40
21551;DHT22;10936;49.836;7.078;2023-03-01T12:03:22;9.50;99.90
21551;DHT22;10936;49.836;7.078;2023-03-01T12:09:00;9.30;99.90
21551;DHT22;10936;49.836;7.078;2023-03-01T12:20:19;9.00;99.90
21551;DHT22;10936;49.836;7.078;2023-03-01T12:29:07;8.20;99.90
21551;DHT22;10936;49.836;7.078;2023-03-01T12:39:57;6.80;99.90
21551;DHT22;10936;49.836;7.078;2023-03-01T12:50:55;5.20;99.90
21551;DHT22;10936;49.836;7.078;2023-03-01T12:53:29;5.20;99.90
21551;DHT22;10936;49.836;7.078;2023-03-01T12:56:01;5.30;99.90
21551;DHT22;10936;49.836;7.078;2023-03-01T12:58:34;5.10;99.90
21551;DHT22;10936;49.836;7.078;2023-03-01T13:04:06;4.90;99.90
21551;DHT22;10936;49.836;7.078;2023-03-01T13:06:46;4.80;99.90
21551;DHT22;10936;49.836;7.078;2023-03-01T13:11:58;4.70;99.90
21551;DHT22;10936;49.836;7.078;2023-03-01T13:16:51;4.90;99.90
21551;DHT22;10936;49.836;7.078;2023-03-01T13:19:25;4.70;99.90
21551;DHT22;10936;49.836;7.078;2023-03-01T13:21:53;4.60;99.90
21551;DHT22;10936;49.836;7.078;2023-03-01T13:24:38;4.70;99.90
21551;DHT22;10936;49.836;7.078;2023-03-01T13:34:50;4.80;99.90
21551;DHT22;10936;49.836;7.078;2023-03-01T13:37:25;4.80;99.90
21551;DHT22;10936;49.836;7.078;2023-03-01T13:39:52;4.80;99.90
21551;DHT22;10936;49.836;7.078;2023-03-01T13:42:38;4.70;99.90
21551;DHT22;10936;49.836;7.078;2023-03-01T13:45:51;4.80;99.90
21551;DHT22;10936;49.836;7.078;2023-03-01T13:47:58;5.10;99.90
21551;DHT22;10936;49.836;7.078;2023-03-01T13:50:29;5.30;99.90
21551;DHT22;10936;49.836;7.078;2023-03-01T13:52:59;4.90;99.90
21551;DHT22;10936;49.836;7.078;2023-03-01T13:55:52;4.80;99.90
21551;DHT22;10936;49.836;7.078;2023-03-01T13:58:25;4.80;99.90
21551;DHT22;10936;49.836;7.078;2023-03-01T14:03:23;4.80;99.90
21551;DHT22;10936;49.836;7.078;2023-03-01T14:08:27;4.80;99.90
21551;DHT22;10936;49.836;7.078;2023-03-01T14:11:06;4.80;99.90
21551;DHT22;10936;49.836;7.078;2023-03-01T14:16:40;5.10;99.90
21551;DHT22;10936;49.836;7.078;2023-03-01T14:19:27;5.00;99.90
21551;DHT22;10936;49.836;7.078;2023-03-01T14:24:46;4.90;99.90
21551;DHT22;10936;49.836;7.078;2023-03-01T14:27:12;4.80;99.90
21551;DHT22;10936;49.836;7.078;2023-03-01T14:29:40;4.80;99.90
21551;DHT22;10936;49.836;7.078;2023-03-01T14:32:10;4.70;99.90
21551;DHT22;10936;49.836;7.078;2023-03-01T14:34:43;4.80;99.90
21551;DHT22;10936;49.836;7.078;2023-03-01T14:37:30;4.90;99.90
21551;DHT22;10936;49.836;7.078;2023-03-01T14:39:58;5.00;99.90
21551;DHT22;10936;49.836;7.078;2023-03-01T14:42:27;5.20;99.90
21551;DHT22;10936;49.836;7.078;2023-03-01T14:44:54;5.20;99.90
21551;DHT22;10936;49.836;7.078;2023-03-01T14:47:30;5.00;99.90
21551;DHT22;10936;49.836;7.078;2023-03-01T14:50:22;5.00;99.90
21551;DHT22;10936;49.836;7.078;2023-03-01T14:52:51;4.90;99.90
21551;DHT22;10936;49.836;7.078;2023-03-01T14:55:24;4.80;99.90
21551;DHT22;10936;49.836;7.078;2023-03-01T14:57:52;4.80;99.90
21551;DHT22;10936;49.836;7.078;2023-03-01T15:00:21;4.60;99.90
21551;DHT22;10936;49.836;7.078;2023-03-01T15:02:49;4.80;99.90
21551;DHT22;10936;49.836;7.078;2023-03-01T15:05:25;4.70;99.90
21551;DHT22;10936;49.836;7.078;2023-03-01T15:07:51;4.80;99.90
21551;DHT22;10936;49.836;7.078;2023-03-01T15:10:21;4.80;99.90
21551;DHT22;10936;49.836;7.078;2023-03-01T15:12:47;4.80;99.90
21551;DHT22;10936;49.836;7.078;2023-03-01T15:17:54;4.70;99.90
21551;DHT22;10936;49.836;7.078;2023-03-01T15:20:24;4.70;99.90
21551;DHT22;10936;49.836;7.078;2023-03-01T15:22:52;4.60;99.90
21551;DHT22;10936;49.836;7.078;2023-03-01T15:25:20;4.50;99.90
21551;DHT22;10936;49.836;7.078;2023-03-01T15:27:48;4.50;99.90
21551;DHT22;10936;49.836;7.078;2023-03-01T15:30:31;4.40;99.90
21551;DHT22;10936;49.836;7.078;2023-03-01T15:35:53;4.50;99.90
21551;DHT22;10936;49.836;7.078;2023-03-01T15:40:54;4.60;99.90
21551;DHT22;10936;49.836;7.078;2023-03-01T15:43:41;4.60;99.90
21551;DHT22;10936;49.836;7.078;2023-03-01T15:46:32;4.40;99.90
21551;DHT22;10936;49.836;7.078;2023-03-01T15:49:33;4.30;99.90
21551;DHT22;10936;49.836;7.078;2023-03-01T15:52:01;4.30;99.90
21551;DHT22;10936;49.836;7.078;2023-03-01T15:54:27;4.30;99.90
21551;DHT22;10936;49.836;7.078;2023-03-01T15:56:53;4.30;99.90
21551;DHT22;10936;49.836;7.078;2023-03-01T15:59:19;4.40;99.90
21551;DHT22;10936;49.836;7.078;2023-03-01T16:01:45;4.30;99.90
21551;DHT22;10936;49.836;7.078;2023-03-01T16:04:12;4.40;99.90
21551;DHT22;10936;49.836;7.078;2023-03-01T16:06:42;4.40;99.90
21551;DHT22;10936;49.836;7.078;2023-03-01T16:09:07;4.40;99.90
21551;DHT22;10936;49.836;7.078;2023-03-01T16:11:35;4.30;99.90
21551;DHT22;10936;49.836;7.078;2023-03-01T16:14:02;4.20;99.90
21551;DHT22;10936;49.836;7.078;2023-03-01T16:16:27;4.20;99.90
21551;DHT22;10936;49.836;7.078;2023-03-01T16:18:53;4.20;99.90
21551;DHT22;10936;49.836;7.078;2023-03-01T16:21:22;4.10;99.90
21551;DHT22;10936;49.836;7.078;2023-03-01T16:23:48;4.10;99.90
21551;DHT22;10936;49.836;7.078;2023-03-01T16:26:14;4.00;99.90
21551;DHT22;10936;49.836;7.078;2023-03-01T16:28:43;4.00;99.90
21551;DHT22;10936;49.836;7.078;2023-03-01T16:31:09;3.90;99.90
21551;DHT22;10936;49.836;7.078;2023-03-01T16:33:35;3.90;99.90
21551;DHT22;10936;49.836;7.078;2023-03-01T16:36:07;3.90;99.90
21551;DHT22;10936;49.836;7.078;2023-03-01T16:38:33;3.80;99.90
21551;DHT22;10936;49.836;7.078;2023-03-01T16:41:00;3.80;99.90
21551;DHT22;10936;49.836;7.078;2023-03-01T16:43:25;3.70;99.90
21551;DHT22;10936;49.836;7.078;2023-03-01T16:45:51;3.60;99.90
21551;DHT22;10936;49.836;7.078;2023-03-01T16:48:17;3.50;99.90
21551;DHT22;10936;49.836;7.078;2023-03-01T16:50:42;3.50;99.90
21551;DHT22;10936;49.836;7.078;2023-03-01T16:53:08;3.40;99.90
21551;DHT22;10936;49.836;7.078;2023-03-01T16:55:33;3.30;99.90
21551;DHT22;10936;49.836;7.078;2023-03-01T16:57:59;3.30;99.90
21551;DHT22;10936;49.836;7.078;2023-03-01T17:00:25;3.30;99.90
21551;DHT22;10936;49.836;7.078;2023-03-01T17:02:51;3.20;99.90
21551;DHT22;10936;49.836;7.078;2023-03-01T17:05:18;3.00;99.90
21551;DHT22;10936;49.836;7.078;2023-03-01T17:07:46;2.90;99.90
21551;DHT22;10936;49.836;7.078;2023-03-01T17:10:12;2.90;99.90
21551;DHT22;10936;49.836;7.078;2023-03-01T17:12:38;2.80;99.90
21551;DHT22;10936;49.836;7.078;2023-03-01T17:15:05;2.80;99.90
21551;DHT22;10936;49.836;7.078;2023-03-01T17:17:31;2.80;99.90
21551;DHT22;10936;49.836;7.078;2023-03-01T17:19:56;2.70;99.90
21551;DHT22;10936;49.836;7.078;2023-03-01T17:22:22;2.50;99.90
21551;DHT22;10936;49.836;7.078;2023-03-01T17:24:48;2.40;99.90
21551;DHT22;10936;49.836;7.078;2023-03-01T17:27:14;2.50;99.90
21551;DHT22;10936;49.836;7.078;2023-03-01T17:29:41;2.50;99.90
21551;DHT22;10936;49.836;7.078;2023-03-01T17:32:07;2.50;99.90
21551;DHT22;10936;49.836;7.078;2023-03-01T17:34:33;2.50;99.90
21551;DHT22;10936;49.836;7.078;2023-03-01T17:36:59;2.50;99.90
21551;DHT22;10936;49.836;7.078;2023-03-01T17:39:24;2.40;99.90
21551;DHT22;10936;49.836;7.078;2023-03-01T17:41:53;2.40;99.90
21551;DHT22;10936;49.836;7.078;2023-03-01T17:44:19;2.40;99.90
21551;DHT22;10936;49.836;7.078;2023-03-01T17:46:45;2.40;99.90
21551;DHT22;10936;49.836;7.078;2023-03-01T17:49:11;2.40;99.90
21551;DHT22;10936;49.836;7.078;2023-03-01T17:51:36;2.30;99.90
21551;DHT22;10936;49.836;7.078;2023-03-01T17:54:02;2.20;99.90
21551;DHT22;10936;49.836;7.078;2023-03-01T17:56:28;2.20;99.90
21551;DHT22;10936;49.836;7.078;2023-03-01T17:58:54;2.20;99.90
21551;DHT22;10936;49.836;7.078;2023-03-01T18:01:21;2.10;99.90
21551;DHT22;10936;49.836;7.078;2023-03-01T18:03:50;2.00;99.90
21551;DHT22;10936;49.836;7.078;2023-03-01T18:06:21;2.00;99.90
21551;DHT22;10936;49.836;7.078;2023-03-01T18:08:48;1.90;99.90
21551;DHT22;10936;49.836;7.078;2023-03-01T18:11:18;1.90;99.90
21551;DHT22;10936;49.836;7.078;2023-03-01T18:13:45;1.90;99.90
21551;DHT22;10936;49.836;7.078;2023-03-01T18:16:14;2.00;99.90
21551;DHT22;10936;49.836;7.078;2023-03-01T18:18:41;1.90;99.90
21551;DHT22;10936;49.836;7.078;2023-03-01T18:21:07;1.90;99.90
21551;DHT22;10936;49.836;7.078;2023-03-01T18:23:34;1.90;99.90
21551;DHT22;10936;49.836;7.078;2023-03-01T18:26:07;1.90;99.90
21551;DHT22;10936;49.836;7.078;2023-03-01T18:28:33;1.90;99.90
21551;DHT22;10936;49.836;7.078;2023-03-01T18:31:04;1.80;99.90
21551;DHT22;10936;49.836;7.078;2023-03-01T18:33:33;1.80;99.90
21551;DHT22;10936;49.836;7.078;2023-03-01T18:35:59;1.80;99.90
21551;DHT22;10936;49.836;7.078;2023-03-01T18:38:25;1.80;99.90
21551;DHT22;10936;49.836;7.078;2023-03-01T18:40:53;1.80;99.90
21551;DHT22;10936;49.836;7.078;2023-03-01T18:43:20;1.70;99.90
21551;DHT22;10936;49.836;7.078;2023-03-01T18:45:45;1.70;99.90
21551;DHT22;10936;49.836;7.078;2023-03-01T18:48:11;1.70;99.90
21551;DHT22;10936;49.836;7.078;2023-03-01T18:50:39;1.70;99.90
21551;DHT22;10936;49.836;7.078;2023-03-01T18:53:04;1.60;99.90
21551;DHT22;10936;49.836;7.078;2023-03-01T18:55:30;1.60;99.90
21551;DHT22;10936;49.836;7.078;2023-03-01T18:57:56;1.60;99.90
21551;DHT22;10936;49.836;7.078;2023-03-01T19:00:21;1.50;99.90
21551;DHT22;10936;49.836;7.078;2023-03-01T19:02:47;1.50;99.90
21551;DHT22;10936;49.836;7.078;2023-03-01T19:05:13;1.50;99.90
21551;DHT22;10936;49.836;7.078;2023-03-01T19:07:39;1.50;99.90
21551;DHT22;10936;49.836;7.078;2023-03-01T19:10:05;1.40;99.90
21551;DHT22;10936;49.836;7.078;2023-03-01T19:12:30;1.50;99.90
21551;DHT22;10936;49.836;7.078;2023-03-01T19:14:56;1.40;99.90
21551;DHT22;10936;49.836;7.078;2023-03-01T19:17:23;1.40;99.90
21551;DHT22;10936;49.836;7.078;2023-03-01T19:19:56;1.30;99.90
21551;DHT22;10936;49.836;7.078;2023-03-01T19:22:21;1.30;99.90
21551;DHT22;10936;49.836;7.078;2023-03-01T19:24:47;1.30;99.90
21551;DHT22;10936;49.836;7.078;2023-03-01T19:27:13;1.30;99.90
21551;DHT22;10936;49.836;7.078;2023-03-01T19:29:38;1.30;99.90
21551;DHT22;10936;49.836;7.078;2023-03-01T19:32:04;1.20;99.90
21551;DHT22;10936;49.836;7.078;2023-03-01T19:34:30;1.20;99.90
21551;DHT22;10936;49.836;7.078;2023-03-01T19:36:56;1.20;99.90
21551;DHT22;10936;49.836;7.078;2023-03-01T19:39:21;1.10;99.90
21551;DHT22;10936;49.836;7.078;2023-03-01T19:41:47;1.10;99.90
21551;DHT22;10936;49.836;7.078;2023-03-01T19:44:13;1.30;99.90
21551;DHT22;10936;49.836;7.078;2023-03-01T19:46:39;1.20;99.90
21551;DHT22;10936;49.836;7.078;2023-03-01T19:49:05;1.30;99.90
21551;DHT22;10936;49.836;7.078;2023-03-01T19:51:31;1.20;99.90
21551;DHT22;10936;49.836;7.078;2023-03-01T19:54:03;1.20;99.90
21551;DHT22;10936;49.836;7.078;2023-03-01T19:56:30;1.20;99.90
21551;DHT22;10936;49.836;7.078;2023-03-01T19:58:55;1.10;99.90
21551;DHT22;10936;49.836;7.078;2023-03-01T20:01:25;1.10;99.90
21551;DHT22;10936;49.836;7.078;2023-03-01T20:03:54;1.00;99.90
21551;DHT22;10936;49.836;7.078;2023-03-01T20:06:20;1.10;99.90
21551;DHT22;10936;49.836;7.078;2023-03-01T20:08:47;1.00;99.90
21551;DHT22;10936;49.836;7.078;2023-03-01T20:11:14;1.00;99.90
21551;DHT22;10936;49.836;7.078;2023-03-01T20:13:41;1.00;99.90
21551;DHT22;10936;49.836;7.078;2023-03-01T20:16:07;1.00;99.90
21551;DHT22;10936;49.836;7.078;2023-03-01T20:18:33;1.00;99.90
21551;DHT22;10936;49.836;7.078;2023-03-01T20:21:00;0.90;99.90
21551;DHT22;10936;49.836;7.078;2023-03-01T20:23:26;1.00;99.90
21551;DHT22;10936;49.836;7.078;2023-03-01T20:26:07;1.00;99.90
21551;DHT22;10936;49.836;7.078;2023-03-01T20:28:34;0.90;99.90
21551;DHT22;10936;49.836;7.078;2023-03-01T20:31:07;1.00;99.90
21551;DHT22;10936;49.836;7.078;2023-03-01T20:33:33;0.90;99.90
21551;DHT22;10936;49.836;7.078;2023-03-01T20:35:59;0.80;99.90
21551;DHT22;10936;49.836;7.078;2023-03-01T20:38:25;0.90;99.90
21551;DHT22;10936;49.836;7.078;2023-03-01T20:41:03;0.80;99.90
21551;DHT22;10936;49.836;7.078;2023-03-01T20:43:29;0.80;99.90
21551;DHT22;10936;49.836;7.078;2023-03-01T20:45:55;0.80;99.90
21551;DHT22;10936;49.836;7.078;2023-03-01T20:48:21;0.80;99.90
21551;DHT22;10936;49.836;7.078;2023-03-01T20:50:47;0.80;99.90
21551;DHT22;10936;49.836;7.078;2023-03-01T20:53:12;0.80;99.90
21551;DHT22;10936;49.836;7.078;2023-03-01T20:55:38;0.70;99.90
21551;DHT22;10936;49.836;7.078;2023-03-01T20:58:03;0.80;99.90
21551;DHT22;10936;49.836;7.078;2023-03-01T21:00:29;0.80;99.90
21551;DHT22;10936;49.836;7.078;2023-03-01T21:02:54;0.80;99.90
21551;DHT22;10936;49.836;7.078;2023-03-01T21:05:20;0.80;99.90
21551;DHT22;10936;49.836;7.078;2023-03-01T21:07:47;0.80;99.90
21551;DHT22;10936;49.836;7.078;2023-03-01T21:10:12;0.80;99.90
21551;DHT22;10936;49.836;7.078;2023-03-01T21:12:38;0.90;99.90
21551;DHT22;10936;49.836;7.078;2023-03-01T21:15:04;0.90;99.90
21551;DHT22;10936;49.836;7.078;2023-03-01T21:17:30;0.90;99.90
21551;DHT22;10936;49.836;7.078;2023-03-01T21:19:55;0.90;99.90
21551;DHT22;10936;49.836;7.078;2023-03-01T21:22:21;0.90;99.90
21551;DHT22;10936;49.836;7.078;2023-03-01T21:24:46;0.90;99.90
21551;DHT22;10936;49.836;7.078;2023-03-01T21:27:13;0.90;99.90
21551;DHT22;10936;49.836;7.078;2023-03-01T21:29:40;0.90;99.90
21551;DHT22;10936;49.836;7.078;2023-03-01T21:32:07;0.90;99.90
21551;DHT22;10936;49.836;7.078;2023-03-01T21:34:34;0.90;99.90
21551;DHT22;10936;49.836;7.078;2023-03-01T21:36:59;0.90;99.90
21551;DHT22;10936;49.836;7.078;2023-03-01T21:39:27;0.90;99.90
21551;DHT22;10936;49.836;7.078;2023-03-01T21:41:54;0.90;99.90
21551;DHT22;10936;49.836;7.078;2023-03-01T21:44:21;0.90;99.90
21551;DHT22;10936;49.836;7.078;2023-03-01T21:46:48;0.90;99.90
21551;DHT22;10936;49.836;7.078;2023-03-01T21:49:13;1.00;99.90
21551;DHT22;10936;49.836;7.078;2023-03-01T21:51:39;1.00;99.90
21551;DHT22;10936;49.836;7.078;2023-03-01T21:54:06;1.00;99.90
21551;DHT22;10936;49.836;7.078;2023-03-01T21:56:33;1.10;99.90
21551;DHT22;10936;49.836;7.078;2023-03-01T21:59:03;1.10;99.90
21551;DHT22;10936;49.836;7.078;2023-03-01T22:01:28;1.20;99.90
21551;DHT22;10936;49.836;7.078;2023-03-01T22:03:55;1.10;99.90
21551;DHT22;10936;49.836;7.078;2023-03-01T22:06:26;1.20;99.90
21551;DHT22;10936;49.836;7.078;2023-03-01T22:08:59;1.20;99.90
21551;DHT22;10936;49.836;7.078;2023-03-01T22:11:25;1.20;99.90
21551;DHT22;10936;49.836;7.078;2023-03-01T22:13:54;1.20;99.90
21551;DHT22;10936;49.836;7.078;2023-03-01T22:16:23;1.20;99.90
21551;DHT22;10936;49.836;7.078;2023-03-01T22:18:49;1.10;99.90
21551;DHT22;10936;49.836;7.078;2023-03-01T22:21:15;1.00;99.90
21551;DHT22;10936;49.836;7.078;2023-03-01T22:23:41;0.90;99.90
21551;DHT22;10936;49.836;7.078;2023-03-01T22:26:08;0.90;99.90
21551;DHT22;10936;49.836;7.078;2023-03-01T22:28:34;0.90;99.90
